sensor_id;sensor_type;location;lat;lon;timestamp;temperature;humidity
14236;DHT22;7202;50.718;7.072;2024-01-15T00:01:37;2.50;99.90
14236;DHT22;7202;50.718;7.072;2024-01-15T00:04:06;2.50;99.90
14236;DHT22;7202;50.718;7.072;2024-01-15T00:06:35;2.50;99.90
14236;DHT22;7202;50.718;7.072;2024-01-15T00:09:04;2.40;99.90
14236;DHT22;7202;50.718;7.072;2024-01-15T00:11:33;2.50;99.90
14236;DHT22;7202;50.718;7.072;2024-01-15T00:14:02;2.60;99.90
14236;DHT22;7202;50.718;7.072;2024-01-15T00:16:34;2.50;99.90
14236;DHT22;7202;50.718;7.072;2024-01-15T00:19:02;2.60;99.90
14236;DHT22;7202;50.718;7.072;2024-01-15T00:21:32;2.60;99.90
14236;DHT22;7202;50.718;7.072;2024-01-15T00:24:01;2.60;99.90
14236;DHT22;7202;50.718;7.072;2024-01-15T00:26:30;2.60;99.90
14236;DHT22;7202;50.718;7.072;2024-01-15T00:28:58;2.60;99.90
14236;DHT22;7202;50.718;7.072;2024-01-15T00:31:27;2.60;99.90
14236;DHT22;7202;50.718;7.072;2024-01-15T00:33:57;2.50;99.90
14236;DHT22;7202;50.718;7.072;2024-01-15T00:36:26;2.50;99.90
14236;DHT22;7202;50.718;7.072;2024-01-15T00:38:56;2.40;99.90
14236;DHT22;7202;50.718;7.072;2024-01-15T00:41:24;2.40;99.90
14236;DHT22;7202;50.718;7.072;2024-01-15T00:43:55;2.40;99.90
14236;DHT22;7202;50.718;7.072;2024-01-15T00:46:23;2.30;99.90
14236;DHT22;7202;50.718;7.072;2024-01-15T00:48:52;2.30;99.90
14236;DHT22;7202;50.718;7.072;2024-01-15T00:51:20;2.30;99.90
14236;DHT22;7202;50.718;7.072;2024-01-15T00:53:49;2.30;99.90
14236;DHT22;7202;50.718;7.072;2024-01-15T00:56:19;2.20;99.90
14236;DHT22;7202;50.718;7.072;2024-01-15T00:58:47;2.20;99.90
14236;DHT22;7202;50.718;7.072;2024-01-15T01:01:16;2.10;99.90
14236;DHT22;7202;50.718;7.072;2024-01-15T01:03:44;2.10;99.90
14236;DHT22;7202;50.718;7.072;2024-01-15T01:06:13;2.00;99.90
14236;DHT22;7202;50.718;7.072;2024-01-15T01:08:41;2.00;99.90
14236;DHT22;7202;50.718;7.072;2024-01-15T01:11:13;2.00;99.90
14236;DHT22;7202;50.718;7.072;2024-01-15T01:13:42;2.00;99.90
14236;DHT22;7202;50.718;7.072;2024-01-15T01:16:11;2.00;99.90
14236;DHT22;7202;50.718;7.072;2024-01-15T01:18:39;2.00;99.90
14236;DHT22;7202;50.718;7.072;2024-01-15T01:21:08;2.10;99.90
14236;DHT22;7202;50.718;7.072;2024-01-15T01:23:37;2.10;99.90
14236;DHT22;7202;50.718;7.072;2024-01-15T01:26:05;2.10;99.90
14236;DHT22;7202;50.718;7.072;2024-01-15T01:28:34;2.10;99.90
14236;DHT22;7202;50.718;7.072;2024-01-15T01:31:04;2.10;99.90
14236;DHT22;7202;50.718;7.072;2024-01-15T01:33:32;2.10;99.90
14236;DHT22;7202;50.718;7.072;2024-01-15T01:36:01;2.10;99.90
14236;DHT22;7202;50.718;7.072;2024-01-15T01:38:35;2.10;99.90
14236;DHT22;7202;50.718;7.072;2024-01-15T01:41:03;2.10;99.90
14236;DHT22;7202;50.718;7.072;2024-01-15T01:43:32;2.00;99.90
14236;DHT22;7202;50.718;7.072;2024-01-15T01:46:01;2.00;99.90
14236;DHT22;7202;50.718;7.072;2024-01-15T01:48:31;2.00;99.90
14236;DHT22;7202;50.718;7.072;2024-01-15T01:51:02;2.00;99.90
14236;DHT22;7202;50.718;7.072;2024-01-15T01:53:33;2.00;99.90
14236;DHT22;7202;50.718;7.072;2024-01-15T01:56:04;2.00;99.90
14236;DHT22;7202;50.718;7.072;2024-01-15T01:58:33;1.90;99.90
14236;DHT22;7202;50.718;7.072;2024-01-15T02:01:02;1.90;99.90
14236;DHT22;7202;50.718;7.072;2024-01-15T02:03:33;1.90;99.90
14236;DHT22;7202;50.718;7.072;2024-01-15T02:06:02;2.00;99.90
14236;DHT22;7202;50.718;7.072;2024-01-15T02:08:31;2.00;99.90
14236;DHT22;7202;50.718;7.072;2024-01-15T02:11:00;2.00;99.90
14236;DHT22;7202;50.718;7.072;2024-01-15T02:13:28;2.00;99.90
14236;DHT22;7202;50.718;7.072;2024-01-15T02:15:57;2.00;99.90
14236;DHT22;7202;50.718;7.072;2024-01-15T02:18:25;2.00;99.90
14236;DHT22;7202;50.718;7.072;2024-01-15T02:20:55;2.00;99.90
14236;DHT22;7202;50.718;7.072;2024-01-15T02:23:25;2.10;99.90
14236;DHT22;7202;50.718;7.072;2024-01-15T02:25:53;2.10;99.90
14236;DHT22;7202;50.718;7.072;2024-01-15T02:28:22;2.00;99.90
14236;DHT22;7202;50.718;7.072;2024-01-15T02:30:51;2.00;99.90
14236;DHT22;7202;50.718;7.072;2024-01-15T02:33:20;2.10;99.90
14236;DHT22;7202;50.718;7.072;2024-01-15T02:35:48;2.10;99.90
14236;DHT22;7202;50.718;7.072;2024-01-15T02:38:17;2.10;99.90
14236;DHT22;7202;50.718;7.072;2024-01-15T02:40:47;2.10;99.90
14236;DHT22;7202;50.718;7.072;2024-01-15T02:43:15;2.10;99.90
14236;DHT22;7202;50.718;7.072;2024-01-15T02:45:46;2.10;99.90
14236;DHT22;7202;50.718;7.072;2024-01-15T02:48:15;2.00;99.90
14236;DHT22;7202;50.718;7.072;2024-01-15T02:50:44;2.00;99.90
14236;DHT22;7202;50.718;7.072;2024-01-15T02:53:12;2.00;99.90
14236;DHT22;7202;50.718;7.072;2024-01-15T02:55:41;2.00;99.90
14236;DHT22;7202;50.718;7.072;2024-01-15T02:58:11;2.00;99.90
14236;DHT22;7202;50.718;7.072;2024-01-15T03:00:39;2.00;99.90
14236;DHT22;7202;50.718;7.072;2024-01-15T03:03:08;2.00;99.90
14236;DHT22;7202;50.718;7.072;2024-01-15T03:05:36;2.00;99.90
14236;DHT22;7202;50.718;7.072;2024-01-15T03:08:05;2.00;99.90
14236;DHT22;7202;50.718;7.072;2024-01-15T03:10:34;2.00;99.90
14236;DHT22;7202;50.718;7.072;2024-01-15T03:13:02;2.00;99.90
14236;DHT22;7202;50.718;7.072;2024-01-15T03:15:32;2.00;99.90
14236;DHT22;7202;50.718;7.072;2024-01-15T03:18:04;2.00;99.90
14236;DHT22;7202;50.718;7.072;2024-01-15T03:20:34;2.00;99.90
14236;DHT22;7202;50.718;7.072;2024-01-15T03:23:03;2.00;99.90
14236;DHT22;7202;50.718;7.072;2024-01-15T03:25:31;2.10;99.90
14236;DHT22;7202;50.718;7.072;2024-01-15T03:27:59;2.00;99.90
14236;DHT22;7202;50.718;7.072;2024-01-15T03:30:32;2.10;99.90
14236;DHT22;7202;50.718;7.072;2024-01-15T03:33:01;2.10;99.90
14236;DHT22;7202;50.718;7.072;2024-01-15T03:35:29;2.00;99.90
14236;DHT22;7202;50.718;7.072;2024-01-15T03:37:58;2.00;99.90
14236;DHT22;7202;50.718;7.072;2024-01-15T03:40:26;2.00;99.90
14236;DHT22;7202;50.718;7.072;2024-01-15T03:42:55;2.00;99.90
14236;DHT22;7202;50.718;7.072;2024-01-15T03:45:24;2.00;99.90
14236;DHT22;7202;50.718;7.072;2024-01-15T03:47:54;2.00;99.90
14236;DHT22;7202;50.718;7.072;2024-01-15T03:50:22;2.00;99.90
14236;DHT22;7202;50.718;7.072;2024-01-15T03:52:51;2.00;99.90
14236;DHT22;7202;50.718;7.072;2024-01-15T03:55:20;2.00;99.90
14236;DHT22;7202;50.718;7.072;2024-01-15T03:57:48;2.00;99.90
14236;DHT22;7202;50.718;7.072;2024-01-15T04:00:17;2.00;99.90
14236;DHT22;7202;50.718;7.072;2024-01-15T04:02:46;2.00;99.90
14236;DHT22;7202;50.718;7.072;2024-01-15T04:05:16;2.00;99.90
14236;DHT22;7202;50.718;7.072;2024-01-15T04:07:44;2.00;99.90
14236;DHT22;7202;50.718;7.072;2024-01-15T04:10:15;2.00;99.90
14236;DHT22;7202;50.718;7.072;2024-01-15T04:12:43;2.00;99.90
14236;DHT22;7202;50.718;7.072;2024-01-15T04:15:13;2.00;99.90
14236;DHT22;7202;50.718;7.072;2024-01-15T04:17:42;2.00;99.90
14236;DHT22;7202;50.718;7.072;2024-01-15T04:20:11;2.00;99.90
14236;DHT22;7202;50.718;7.072;2024-01-15T04:22:40;2.00;99.90
14236;DHT22;7202;50.718;7.072;2024-01-15T04:25:09;2.00;99.90
14236;DHT22;7202;50.718;7.072;2024-01-15T04:27:38;2.00;99.90
14236;DHT22;7202;50.718;7.072;2024-01-15T04:30:08;2.00;99.90
14236;DHT22;7202;50.718;7.072;2024-01-15T04:32:36;2.00;99.90
14236;DHT22;7202;50.718;7.072;2024-01-15T04:35:08;2.00;99.90
14236;DHT22;7202;50.718;7.072;2024-01-15T04:37:37;2.00;99.90
14236;DHT22;7202;50.718;7.072;2024-01-15T04:40:08;1.90;99.90
14236;DHT22;7202;50.718;7.072;2024-01-15T04:42:37;1.90;99.90
14236;DHT22;7202;50.718;7.072;2024-01-15T04:45:06;1.90;99.90
14236;DHT22;7202;50.718;7.072;2024-01-15T04:47:34;1.90;99.90
14236;DHT22;7202;50.718;7.072;2024-01-15T04:50:06;1.90;99.90
14236;DHT22;7202;50.718;7.072;2024-01-15T04:52:34;1.90;99.90
14236;DHT22;7202;50.718;7.072;2024-01-15T04:55:03;1.80;99.90
14236;DHT22;7202;50.718;7.072;2024-01-15T04:57:33;1.80;99.90
14236;DHT22;7202;50.718;7.072;2024-01-15T05:00:01;1.80;99.90
14236;DHT22;7202;50.718;7.072;2024-01-15T05:02:30;1.80;99.90
14236;DHT22;7202;50.718;7.072;2024-01-15T05:04:59;1.80;99.90
14236;DHT22;7202;50.718;7.072;2024-01-15T05:07:27;1.80;99.90
14236;DHT22;7202;50.718;7.072;2024-01-15T05:09:56;1.80;99.90
14236;DHT22;7202;50.718;7.072;2024-01-15T05:12:25;1.80;99.90
14236;DHT22;7202;50.718;7.072;2024-01-15T05:14:55;1.80;99.90
14236;DHT22;7202;50.718;7.072;2024-01-15T05:17:23;1.80;99.90
14236;DHT22;7202;50.718;7.072;2024-01-15T05:19:52;1.80;99.90
14236;DHT22;7202;50.718;7.072;2024-01-15T05:22:20;1.80;99.90
14236;DHT22;7202;50.718;7.072;2024-01-15T05:24:52;1.80;99.90
14236;DHT22;7202;50.718;7.072;2024-01-15T05:27:20;1.90;99.90
14236;DHT22;7202;50.718;7.072;2024-01-15T05:29:49;1.90;99.90
14236;DHT22;7202;50.718;7.072;2024-01-15T05:32:19;2.00;99.90
14236;DHT22;7202;50.718;7.072;2024-01-15T05:34:47;1.90;99.90
14236;DHT22;7202;50.718;7.072;2024-01-15T05:37:16;2.00;99.90
14236;DHT22;7202;50.718;7.072;2024-01-15T05:39:45;2.00;99.90
14236;DHT22;7202;50.718;7.072;2024-01-15T05:42:13;1.90;99.90
14236;DHT22;7202;50.718;7.072;2024-01-15T05:44:42;1.90;99.90
14236;DHT22;7202;50.718;7.072;2024-01-15T05:47:10;1.90;99.90
14236;DHT22;7202;50.718;7.072;2024-01-15T05:49:40;1.90;99.90
14236;DHT22;7202;50.718;7.072;2024-01-15T05:52:09;2.10;99.90
14236;DHT22;7202;50.718;7.072;2024-01-15T05:54:37;1.90;99.90
14236;DHT22;7202;50.718;7.072;2024-01-15T05:57:05;1.80;99.90
14236;DHT22;7202;50.718;7.072;2024-01-15T05:59:34;1.90;99.90
14236;DHT22;7202;50.718;7.072;2024-01-15T06:02:03;1.90;99.90
14236;DHT22;7202;50.718;7.072;2024-01-15T06:04:32;1.90;99.90
14236;DHT22;7202;50.718;7.072;2024-01-15T06:07:02;1.90;99.90
14236;DHT22;7202;50.718;7.072;2024-01-15T06:09:31;1.80;99.90
14236;DHT22;7202;50.718;7.072;2024-01-15T06:12:00;1.80;99.90
14236;DHT22;7202;50.718;7.072;2024-01-15T06:14:28;1.80;99.90
14236;DHT22;7202;50.718;7.072;2024-01-15T06:16:57;1.80;99.90
14236;DHT22;7202;50.718;7.072;2024-01-15T06:19:25;1.80;99.90
14236;DHT22;7202;50.718;7.072;2024-01-15T06:21:54;1.80;99.90
14236;DHT22;7202;50.718;7.072;2024-01-15T06:24:24;1.80;99.90
14236;DHT22;7202;50.718;7.072;2024-01-15T06:26:53;1.80;99.90
14236;DHT22;7202;50.718;7.072;2024-01-15T06:29:21;1.90;99.90
14236;DHT22;7202;50.718;7.072;2024-01-15T06:31:51;1.90;99.90
14236;DHT22;7202;50.718;7.072;2024-01-15T06:34:20;1.80;99.90
14236;DHT22;7202;50.718;7.072;2024-01-15T06:36:49;1.80;99.90
14236;DHT22;7202;50.718;7.072;2024-01-15T06:39:17;1.80;99.90
14236;DHT22;7202;50.718;7.072;2024-01-15T06:41:47;1.80;99.90
14236;DHT22;7202;50.718;7.072;2024-01-15T06:44:16;1.90;99.90
14236;DHT22;7202;50.718;7.072;2024-01-15T06:46:44;1.80;99.90
14236;DHT22;7202;50.718;7.072;2024-01-15T06:49:13;1.80;99.90
14236;DHT22;7202;50.718;7.072;2024-01-15T06:51:42;1.80;99.90
14236;DHT22;7202;50.718;7.072;2024-01-15T06:54:14;1.80;99.90
14236;DHT22;7202;50.718;7.072;2024-01-15T06:56:42;1.90;99.90
14236;DHT22;7202;50.718;7.072;2024-01-15T06:59:12;1.90;99.90
14236;DHT22;7202;50.718;7.072;2024-01-15T07:01:45;1.90;99.90
14236;DHT22;7202;50.718;7.072;2024-01-15T07:04:14;1.90;99.90
14236;DHT22;7202;50.718;7.072;2024-01-15T07:06:42;1.80;99.90
14236;DHT22;7202;50.718;7.072;2024-01-15T07:09:11;1.80;99.90
14236;DHT22;7202;50.718;7.072;2024-01-15T07:11:44;1.80;99.90
14236;DHT22;7202;50.718;7.072;2024-01-15T07:14:14;1.80;99.90
14236;DHT22;7202;50.718;7.072;2024-01-15T07:16:43;1.80;99.90
14236;DHT22;7202;50.718;7.072;2024-01-15T07:19:14;1.80;99.90
14236;DHT22;7202;50.718;7.072;2024-01-15T07:21:43;1.80;99.90
14236;DHT22;7202;50.718;7.072;2024-01-15T07:24:12;1.80;99.90
14236;DHT22;7202;50.718;7.072;2024-01-15T07:26:40;1.80;99.90
14236;DHT22;7202;50.718;7.072;2024-01-15T07:29:09;1.80;99.90
14236;DHT22;7202;50.718;7.072;2024-01-15T07:31:39;1.80;99.90
14236;DHT22;7202;50.718;7.072;2024-01-15T07:34:07;1.80;99.90
14236;DHT22;7202;50.718;7.072;2024-01-15T07:36:36;1.80;99.90
14236;DHT22;7202;50.718;7.072;2024-01-15T07:39:05;1.80;99.90
14236;DHT22;7202;50.718;7.072;2024-01-15T07:41:33;1.80;99.90
14236;DHT22;7202;50.718;7.072;2024-01-15T07:44:03;1.80;99.90
14236;DHT22;7202;50.718;7.072;2024-01-15T07:46:32;1.80;99.90
14236;DHT22;7202;50.718;7.072;2024-01-15T07:49:02;1.80;99.90
14236;DHT22;7202;50.718;7.072;2024-01-15T07:51:31;1.80;99.90
14236;DHT22;7202;50.718;7.072;2024-01-15T07:54:00;1.70;99.90
14236;DHT22;7202;50.718;7.072;2024-01-15T07:56:28;1.80;99.90
14236;DHT22;7202;50.718;7.072;2024-01-15T07:58:57;1.80;99.90
14236;DHT22;7202;50.718;7.072;2024-01-15T08:01:25;1.80;99.90
14236;DHT22;7202;50.718;7.072;2024-01-15T08:03:54;1.80;99.90
14236;DHT22;7202;50.718;7.072;2024-01-15T08:06:24;1.80;99.90
14236;DHT22;7202;50.718;7.072;2024-01-15T08:08:52;1.80;99.90
14236;DHT22;7202;50.718;7.072;2024-01-15T08:11:21;1.90;99.90
14236;DHT22;7202;50.718;7.072;2024-01-15T08:13:50;1.90;99.90
14236;DHT22;7202;50.718;7.072;2024-01-15T08:16:19;1.90;99.90
14236;DHT22;7202;50.718;7.072;2024-01-15T08:18:47;1.90;99.90
14236;DHT22;7202;50.718;7.072;2024-01-15T08:21:16;1.90;99.90
14236;DHT22;7202;50.718;7.072;2024-01-15T08:23:46;1.90;99.90
14236;DHT22;7202;50.718;7.072;2024-01-15T08:26:15;1.90;99.90
14236;DHT22;7202;50.718;7.072;2024-01-15T08:28:43;1.90;99.90
14236;DHT22;7202;50.718;7.072;2024-01-15T08:31:12;2.00;99.90
14236;DHT22;7202;50.718;7.072;2024-01-15T08:33:41;2.00;99.90
14236;DHT22;7202;50.718;7.072;2024-01-15T08:36:10;2.00;99.90
14236;DHT22;7202;50.718;7.072;2024-01-15T08:38:39;2.10;99.90
14236;DHT22;7202;50.718;7.072;2024-01-15T08:41:09;2.10;99.90
14236;DHT22;7202;50.718;7.072;2024-01-15T08:43:38;2.20;99.90
14236;DHT22;7202;50.718;7.072;2024-01-15T08:46:07;2.30;99.90
14236;DHT22;7202;50.718;7.072;2024-01-15T08:48:35;2.30;99.90
14236;DHT22;7202;50.718;7.072;2024-01-15T08:51:04;2.40;99.90
14236;DHT22;7202;50.718;7.072;2024-01-15T08:53:33;2.80;99.90
14236;DHT22;7202;50.718;7.072;2024-01-15T08:56:01;2.40;99.90
14236;DHT22;7202;50.718;7.072;2024-01-15T08:58:31;2.40;99.90
14236;DHT22;7202;50.718;7.072;2024-01-15T09:01:00;2.40;99.90
14236;DHT22;7202;50.718;7.072;2024-01-15T09:03:29;2.40;99.90
14236;DHT22;7202;50.718;7.072;2024-01-15T09:05:58;2.30;99.90
14236;DHT22;7202;50.718;7.072;2024-01-15T09:08:26;2.40;99.90
14236;DHT22;7202;50.718;7.072;2024-01-15T09:10:55;2.40;99.90
14236;DHT22;7202;50.718;7.072;2024-01-15T09:13:24;2.40;99.90
14236;DHT22;7202;50.718;7.072;2024-01-15T09:15:54;2.40;99.90
14236;DHT22;7202;50.718;7.072;2024-01-15T09:18:22;2.40;99.90
14236;DHT22;7202;50.718;7.072;2024-01-15T09:20:51;2.40;99.90
14236;DHT22;7202;50.718;7.072;2024-01-15T09:23:20;2.40;99.90
14236;DHT22;7202;50.718;7.072;2024-01-15T09:25:48;2.40;99.90
14236;DHT22;7202;50.718;7.072;2024-01-15T09:28:17;2.50;99.90
14236;DHT22;7202;50.718;7.072;2024-01-15T09:30:45;2.40;99.90
14236;DHT22;7202;50.718;7.072;2024-01-15T09:33:16;2.50;99.90
14236;DHT22;7202;50.718;7.072;2024-01-15T09:35:44;2.50;99.90
14236;DHT22;7202;50.718;7.072;2024-01-15T09:38:13;2.50;99.90
14236;DHT22;7202;50.718;7.072;2024-01-15T09:40:43;2.50;99.90
14236;DHT22;7202;50.718;7.072;2024-01-15T09:43:14;2.60;99.90
14236;DHT22;7202;50.718;7.072;2024-01-15T09:45:44;2.60;99.90
14236;DHT22;7202;50.718;7.072;2024-01-15T09:48:13;2.60;99.90
14236;DHT22;7202;50.718;7.072;2024-01-15T09:50:43;2.60;99.90
14236;DHT22;7202;50.718;7.072;2024-01-15T09:53:13;2.60;99.90
14236;DHT22;7202;50.718;7.072;2024-01-15T09:55:43;2.60;99.90
14236;DHT22;7202;50.718;7.072;2024-01-15T09:58:12;2.60;99.90
14236;DHT22;7202;50.718;7.072;2024-01-15T10:00:41;2.60;99.90
14236;DHT22;7202;50.718;7.072;2024-01-15T10:03:11;2.50;99.90
14236;DHT22;7202;50.718;7.072;2024-01-15T10:05:40;2.50;99.90
14236;DHT22;7202;50.718;7.072;2024-01-15T10:08:10;2.50;99.90
14236;DHT22;7202;50.718;7.072;2024-01-15T10:10:39;2.40;99.90
14236;DHT22;7202;50.718;7.072;2024-01-15T10:13:08;2.40;99.90
14236;DHT22;7202;50.718;7.072;2024-01-15T10:15:38;2.40;99.90
14236;DHT22;7202;50.718;7.072;2024-01-15T10:18:06;2.30;99.90
14236;DHT22;7202;50.718;7.072;2024-01-15T10:20:35;2.30;99.90
14236;DHT22;7202;50.718;7.072;2024-01-15T10:23:04;2.30;99.90
14236;DHT22;7202;50.718;7.072;2024-01-15T10:25:35;2.20;99.90
14236;DHT22;7202;50.718;7.072;2024-01-15T10:28:04;2.20;99.90
14236;DHT22;7202;50.718;7.072;2024-01-15T10:30:34;2.20;99.90
14236;DHT22;7202;50.718;7.072;2024-01-15T10:33:03;2.30;99.90
14236;DHT22;7202;50.718;7.072;2024-01-15T10:35:34;2.30;99.90
14236;DHT22;7202;50.718;7.072;2024-01-15T10:38:02;2.30;99.90
14236;DHT22;7202;50.718;7.072;2024-01-15T10:40:32;2.30;99.90
14236;DHT22;7202;50.718;7.072;2024-01-15T10:43:02;2.30;99.90
14236;DHT22;7202;50.718;7.072;2024-01-15T10:45:31;2.30;99.90
14236;DHT22;7202;50.718;7.072;2024-01-15T10:48:00;2.30;99.90
14236;DHT22;7202;50.718;7.072;2024-01-15T10:50:31;2.20;99.90
14236;DHT22;7202;50.718;7.072;2024-01-15T10:53:00;2.30;99.90
14236;DHT22;7202;50.718;7.072;2024-01-15T10:55:30;2.40;99.90
14236;DHT22;7202;50.718;7.072;2024-01-15T10:58:00;2.40;99.90
14236;DHT22;7202;50.718;7.072;2024-01-15T11:00:30;2.40;99.90
14236;DHT22;7202;50.718;7.072;2024-01-15T11:03:01;2.40;99.90
14236;DHT22;7202;50.718;7.072;2024-01-15T11:05:33;2.40;99.90
14236;DHT22;7202;50.718;7.072;2024-01-15T11:08:02;2.40;99.90
14236;DHT22;7202;50.718;7.072;2024-01-15T11:10:41;2.40;99.90
14236;DHT22;7202;50.718;7.072;2024-01-15T11:13:13;2.40;99.90
14236;DHT22;7202;50.718;7.072;2024-01-15T11:15:59;2.40;99.90
14236;DHT22;7202;50.718;7.072;2024-01-15T11:18:29;2.30;99.90
14236;DHT22;7202;50.718;7.072;2024-01-15T11:21:25;2.30;99.90
14236;DHT22;7202;50.718;7.072;2024-01-15T11:23:56;2.20;99.90
14236;DHT22;7202;50.718;7.072;2024-01-15T11:26:34;2.20;99.90
14236;DHT22;7202;50.718;7.072;2024-01-15T11:29:04;2.20;99.90
14236;DHT22;7202;50.718;7.072;2024-01-15T11:31:57;2.20;99.90
14236;DHT22;7202;50.718;7.072;2024-01-15T11:34:58;2.20;99.90
14236;DHT22;7202;50.718;7.072;2024-01-15T11:37:56;2.20;99.90
14236;DHT22;7202;50.718;7.072;2024-01-15T11:40:19;2.10;99.90
14236;DHT22;7202;50.718;7.072;2024-01-15T11:42:48;2.20;99.90
14236;DHT22;7202;50.718;7.072;2024-01-15T11:45:20;2.20;99.90
14236;DHT22;7202;50.718;7.072;2024-01-15T11:48:14;2.20;99.90
14236;DHT22;7202;50.718;7.072;2024-01-15T11:50:44;2.20;99.90
14236;DHT22;7202;50.718;7.072;2024-01-15T11:53:21;2.20;99.90
14236;DHT22;7202;50.718;7.072;2024-01-15T11:55:51;2.20;99.90
14236;DHT22;7202;50.718;7.072;2024-01-15T11:58:21;2.20;99.90
14236;DHT22;7202;50.718;7.072;2024-01-15T12:00:51;2.20;99.90
14236;DHT22;7202;50.718;7.072;2024-01-15T12:03:22;2.30;99.90
14236;DHT22;7202;50.718;7.072;2024-01-15T12:05:52;2.40;99.90
14236;DHT22;7202;50.718;7.072;2024-01-15T12:08:21;2.40;99.90
14236;DHT22;7202;50.718;7.072;2024-01-15T12:10:50;2.40;99.90
14236;DHT22;7202;50.718;7.072;2024-01-15T12:13:19;2.40;99.90
14236;DHT22;7202;50.718;7.072;2024-01-15T12:15:48;2.50;99.90
14236;DHT22;7202;50.718;7.072;2024-01-15T12:18:18;2.50;99.90
14236;DHT22;7202;50.718;7.072;2024-01-15T12:20:49;2.50;99.90
14236;DHT22;7202;50.718;7.072;2024-01-15T12:23:19;2.40;99.90
14236;DHT22;7202;50.718;7.072;2024-01-15T12:25:47;2.50;99.90
14236;DHT22;7202;50.718;7.072;2024-01-15T12:28:17;2.50;99.90
14236;DHT22;7202;50.718;7.072;2024-01-15T12:30:46;2.50;99.90
14236;DHT22;7202;50.718;7.072;2024-01-15T12:33:18;2.60;99.90
14236;DHT22;7202;50.718;7.072;2024-01-15T12:35:53;2.50;99.90
14236;DHT22;7202;50.718;7.072;2024-01-15T12:38:21;2.80;99.90
14236;DHT22;7202;50.718;7.072;2024-01-15T12:40:50;2.60;99.90
14236;DHT22;7202;50.718;7.072;2024-01-15T12:43:18;2.60;99.90
14236;DHT22;7202;50.718;7.072;2024-01-15T12:45:47;2.70;99.90
14236;DHT22;7202;50.718;7.072;2024-01-15T12:48:16;2.60;99.90
14236;DHT22;7202;50.718;7.072;2024-01-15T12:50:46;2.70;99.90
14236;DHT22;7202;50.718;7.072;2024-01-15T12:53:16;2.70;99.90
14236;DHT22;7202;50.718;7.072;2024-01-15T12:55:45;2.80;99.90
14236;DHT22;7202;50.718;7.072;2024-01-15T12:58:14;2.80;99.90
14236;DHT22;7202;50.718;7.072;2024-01-15T13:00:47;2.90;99.90
14236;DHT22;7202;50.718;7.072;2024-01-15T13:03:16;2.90;99.90
14236;DHT22;7202;50.718;7.072;2024-01-15T13:05:44;2.90;99.90
14236;DHT22;7202;50.718;7.072;2024-01-15T13:08:13;3.20;99.90
14236;DHT22;7202;50.718;7.072;2024-01-15T13:10:43;2.90;99.90
14236;DHT22;7202;50.718;7.072;2024-01-15T13:13:12;2.90;99.90
14236;DHT22;7202;50.718;7.072;2024-01-15T13:15:40;2.90;99.90
14236;DHT22;7202;50.718;7.072;2024-01-15T13:18:09;2.90;99.90
14236;DHT22;7202;50.718;7.072;2024-01-15T13:20:38;2.90;99.90
14236;DHT22;7202;50.718;7.072;2024-01-15T13:23:06;2.90;99.90
14236;DHT22;7202;50.718;7.072;2024-01-15T13:25:35;3.00;99.90
14236;DHT22;7202;50.718;7.072;2024-01-15T13:28:06;3.10;99.90
14236;DHT22;7202;50.718;7.072;2024-01-15T13:30:35;3.10;99.90
14236;DHT22;7202;50.718;7.072;2024-01-15T13:33:04;3.10;99.90
14236;DHT22;7202;50.718;7.072;2024-01-15T13:35:33;3.10;99.90
14236;DHT22;7202;50.718;7.072;2024-01-15T13:38:03;3.00;99.90
14236;DHT22;7202;50.718;7.072;2024-01-15T13:40:32;3.00;99.90
14236;DHT22;7202;50.718;7.072;2024-01-15T13:43:00;3.00;99.90
14236;DHT22;7202;50.718;7.072;2024-01-15T13:45:30;3.00;99.90
14236;DHT22;7202;50.718;7.072;2024-01-15T13:47:59;3.10;99.90
14236;DHT22;7202;50.718;7.072;2024-01-15T13:50:27;3.00;99.90
14236;DHT22;7202;50.718;7.072;2024-01-15T13:52:56;3.00;99.90
14236;DHT22;7202;50.718;7.072;2024-01-15T13:55:24;3.10;99.90
14236;DHT22;7202;50.718;7.072;2024-01-15T13:57:53;3.00;99.90
14236;DHT22;7202;50.718;7.072;2024-01-15T14:00:22;3.10;99.90
14236;DHT22;7202;50.718;7.072;2024-01-15T14:02:52;3.10;99.90
14236;DHT22;7202;50.718;7.072;2024-01-15T14:05:21;3.20;99.90
14236;DHT22;7202;50.718;7.072;2024-01-15T14:07:49;3.10;99.90
14236;DHT22;7202;50.718;7.072;2024-01-15T14:10:18;3.10;99.90
14236;DHT22;7202;50.718;7.072;2024-01-15T14:12:46;3.20;99.90
14236;DHT22;7202;50.718;7.072;2024-01-15T14:15:17;3.20;99.90
14236;DHT22;7202;50.718;7.072;2024-01-15T14:17:48;3.10;99.90
14236;DHT22;7202;50.718;7.072;2024-01-15T14:20:18;3.00;99.90
14236;DHT22;7202;50.718;7.072;2024-01-15T14:22:49;3.00;99.90
14236;DHT22;7202;50.718;7.072;2024-01-15T14:25:18;3.00;99.90
14236;DHT22;7202;50.718;7.072;2024-01-15T14:27:47;2.90;99.90
14236;DHT22;7202;50.718;7.072;2024-01-15T14:30:16;2.90;99.90
14236;DHT22;7202;50.718;7.072;2024-01-15T14:32:44;2.90;99.90
14236;DHT22;7202;50.718;7.072;2024-01-15T14:35:13;2.80;99.90
14236;DHT22;7202;50.718;7.072;2024-01-15T14:37:43;2.80;99.90
14236;DHT22;7202;50.718;7.072;2024-01-15T14:40:12;2.70;99.90
14236;DHT22;7202;50.718;7.072;2024-01-15T14:42:44;2.60;99.90
14236;DHT22;7202;50.718;7.072;2024-01-15T14:45:13;2.60;99.90
14236;DHT22;7202;50.718;7.072;2024-01-15T14:47:42;2.60;99.90
14236;DHT22;7202;50.718;7.072;2024-01-15T14:50:11;2.60;99.90
14236;DHT22;7202;50.718;7.072;2024-01-15T14:52:40;2.60;99.90
14236;DHT22;7202;50.718;7.072;2024-01-15T14:55:11;2.50;99.90
14236;DHT22;7202;50.718;7.072;2024-01-15T14:57:39;2.50;99.90
14236;DHT22;7202;50.718;7.072;2024-01-15T15:00:08;2.50;99.90
14236;DHT22;7202;50.718;7.072;2024-01-15T15:02:37;2.50;99.90
14236;DHT22;7202;50.718;7.072;2024-01-15T15:05:06;2.40;99.90
14236;DHT22;7202;50.718;7.072;2024-01-15T15:07:35;2.40;99.90
14236;DHT22;7202;50.718;7.072;2024-01-15T15:10:05;2.30;99.90
14236;DHT22;7202;50.718;7.072;2024-01-15T15:12:35;2.30;99.90
14236;DHT22;7202;50.718;7.072;2024-01-15T15:15:04;2.30;99.90
14236;DHT22;7202;50.718;7.072;2024-01-15T15:17:38;2.30;99.90
14236;DHT22;7202;50.718;7.072;2024-01-15T15:20:08;2.20;99.90
14236;DHT22;7202;50.718;7.072;2024-01-15T15:22:37;2.20;99.90
14236;DHT22;7202;50.718;7.072;2024-01-15T15:25:06;2.20;99.90
14236;DHT22;7202;50.718;7.072;2024-01-15T15:27:38;2.20;99.90
14236;DHT22;7202;50.718;7.072;2024-01-15T15:30:07;2.30;99.90
14236;DHT22;7202;50.718;7.072;2024-01-15T15:32:36;2.20;99.90
14236;DHT22;7202;50.718;7.072;2024-01-15T15:35:05;2.20;99.90
14236;DHT22;7202;50.718;7.072;2024-01-15T15:37:35;2.20;99.90
14236;DHT22;7202;50.718;7.072;2024-01-15T15:40:05;2.10;99.90
14236;DHT22;7202;50.718;7.072;2024-01-15T15:42:38;2.10;99.90
14236;DHT22;7202;50.718;7.072;2024-01-15T15:45:07;2.10;99.90
14236;DHT22;7202;50.718;7.072;2024-01-15T15:47:37;2.10;99.90
14236;DHT22;7202;50.718;7.072;2024-01-15T15:50:07;2.20;99.90
14236;DHT22;7202;50.718;7.072;2024-01-15T15:52:35;2.10;99.90
14236;DHT22;7202;50.718;7.072;2024-01-15T15:55:05;2.10;99.90
14236;DHT22;7202;50.718;7.072;2024-01-15T15:57:35;2.10;99.90
14236;DHT22;7202;50.718;7.072;2024-01-15T16:00:07;2.20;99.90
14236;DHT22;7202;50.718;7.072;2024-01-15T16:02:39;2.10;99.90
14236;DHT22;7202;50.718;7.072;2024-01-15T16:05:07;2.10;99.90
14236;DHT22;7202;50.718;7.072;2024-01-15T16:07:37;2.10;99.90
14236;DHT22;7202;50.718;7.072;2024-01-15T16:10:07;2.10;99.90
14236;DHT22;7202;50.718;7.072;2024-01-15T16:12:36;2.00;99.90
14236;DHT22;7202;50.718;7.072;2024-01-15T16:15:17;2.00;99.90
14236;DHT22;7202;50.718;7.072;2024-01-15T16:17:46;2.00;99.90